Terminal Aerodrome Forecast
Issued by NWS

Home | Current Version | Previous Version | Text Only | Print | Product List | Glossary On
Versions: 1 2 3 4 5 6 7 8 9 10 11 12 13 14 15 16 17 18 19 20 21 22 23 24 25 26 27 28
000
FTAK31 PAJK 151722
TAFASI
TAF
PASI 151722Z 1518/1618 28007KT P6SM VCSH FEW010 SCT020 OVC035
     FM152100 22006KT 6SM -RA BKN015 OVC025
     FM160600 16009KT 5SM -RA BR BKN007 OVC015
     FM161500 14006KT P6SM -RA BKN015 OVC025=

USA.gov is the U.S. government's official web portal to all federal, state and local government web resources and services.